Time;durP1;ratioP1;P1;durP2;ratioP2;P2;SDS_P1;SDS_P2;PMS_P1;PMS_P2;Temp;Humidity;BMP_temperature;BMP_pressure;BME280_temperature;BME280_humidity;BME280_pressure;Samples;Min_cycle;Max_cycle;Signal;HPM_P1;HPM_P2
2021/05/25 00:01:02;;;;;;;2.50;0.90;;;;;;;;;;10541383;28;20237;-71
2021/05/25 00:06:04;;;;;;;1.20;0.70;;;;;;;;;;10520652;28;20207;-71
2021/05/25 00:11:07;;;;;;;3.03;1.00;;;;;;;;;;10520149;28;20219;-69
2021/05/25 00:16:10;;;;;;;1.00;0.70;;;;;;;;;;10514886;28;20291;-70
2021/05/25 00:21:12;;;;;;;2.63;0.97;;;;;;;;;;10529211;28;20288;-70
2021/05/25 00:26:14;;;;;;;2.27;1.00;;;;;;;;;;10520125;28;20200;-69
2021/05/25 00:31:17;;;;;;;0.87;0.73;;;;;;;;;;10522712;28;20556;-70
2021/05/25 00:36:21;;;;;;;1.40;0.70;;;;;;;;;;10524748;28;20260;-69
2021/05/25 00:41:23;;;;;;;1.33;0.90;;;;;;;;;;10521626;28;20271;-69
2021/05/25 00:46:26;;;;;;;2.50;1.10;;;;;;;;;;10528519;28;20264;-69
2021/05/25 00:51:29;;;;;;;2.07;0.80;;;;;;;;;;10523325;28;20253;-69
2021/05/25 00:56:32;;;;;;;2.47;1.10;;;;;;;;;;10526462;28;20184;-70
2021/05/25 01:01:35;;;;;;;1.97;0.83;;;;;;;;;;10532741;28;20273;-70
2021/05/25 01:06:37;;;;;;;2.13;1.00;;;;;;;;;;10514604;28;20345;-71
2021/05/25 01:11:41;;;;;;;3.53;1.20;;;;;;;;;;10512653;28;20724;-71
2021/05/25 01:16:44;;;;;;;3.00;1.10;;;;;;;;;;10527196;28;20645;-68
2021/05/25 01:21:48;;;;;;;3.37;0.87;;;;;;;;;;10526251;28;20219;-71
2021/05/25 01:26:51;;;;;;;1.17;0.60;;;;;;;;;;10535677;28;20277;-70
2021/05/25 01:31:53;;;;;;;1.67;0.80;;;;;;;;;;10537907;28;20215;-69
2021/05/25 01:36:56;;;;;;;1.17;0.70;;;;;;;;;;10533334;28;20202;-70
2021/05/25 01:41:58;;;;;;;2.03;0.80;;;;;;;;;;10529396;28;20228;-70
2021/05/25 01:47:00;;;;;;;2.40;0.90;;;;;;;;;;10549124;28;20618;-71
2021/05/25 01:52:04;;;;;;;1.87;0.80;;;;;;;;;;10534471;28;20663;-71
2021/05/25 01:57:06;;;;;;;2.07;0.90;;;;;;;;;;10536294;28;20211;-71
2021/05/25 02:02:09;;;;;;;2.77;0.90;;;;;;;;;;10531779;28;20617;-70
2021/05/25 02:07:17;;;;;;;3.93;0.70;;;;;;;;;;10523662;28;20615;-70
2021/05/25 02:12:19;;;;;;;4.83;0.90;;;;;;;;;;10535262;28;20254;-69
2021/05/25 02:17:24;;;;;;;0.87;0.40;;;;;;;;;;10546694;28;20200;-70
2021/05/25 02:22:28;;;;;;;2.10;0.60;;;;;;;;;;10529738;28;20240;-70
2021/05/25 02:27:30;;;;;;;2.37;0.60;;;;;;;;;;10530925;28;20212;-70
2021/05/25 02:32:32;;;;;;;2.70;0.63;;;;;;;;;;10547235;28;20279;-70
2021/05/25 02:37:36;;;;;;;4.47;1.00;;;;;;;;;;10532867;28;20188;-68
2021/05/25 02:42:38;;;;;;;2.40;0.80;;;;;;;;;;10530186;28;20211;-70
2021/05/25 02:47:40;;;;;;;1.40;0.83;;;;;;;;;;10530788;28;20276;-71
2021/05/25 02:52:47;;;;;;;4.07;1.10;;;;;;;;;;10525892;28;20215;-70
2021/05/25 02:57:49;;;;;;;2.93;1.00;;;;;;;;;;10528171;28;20207;-68
2021/05/25 03:02:52;;;;;;;2.50;0.97;;;;;;;;;;10532141;28;20250;-68
2021/05/25 03:07:55;;;;;;;2.20;0.90;;;;;;;;;;10524936;28;20226;-67
2021/05/25 03:12:58;;;;;;;4.13;1.23;;;;;;;;;;10531135;28;20219;-68
2021/05/25 03:18:00;;;;;;;2.57;0.70;;;;;;;;;;10524549;28;20264;-69
2021/05/25 03:23:04;;;;;;;3.87;0.67;;;;;;;;;;10525365;28;20212;-69
2021/05/25 03:28:07;;;;;;;4.10;0.90;;;;;;;;;;10531903;28;20294;-69
2021/05/25 03:33:10;;;;;;;2.80;1.00;;;;;;;;;;10524778;28;20748;-71
2021/05/25 03:38:13;;;;;;;2.47;1.03;;;;;;;;;;10523605;28;20180;-70
2021/05/25 03:43:15;;;;;;;1.80;0.80;;;;;;;;;;10522959;28;20315;-70
2021/05/25 03:48:18;;;;;;;1.63;0.90;;;;;;;;;;10528210;28;20221;-70
2021/05/25 03:53:21;;;;;;;3.50;1.20;;;;;;;;;;10529823;28;20225;-70
2021/05/25 04:03:44;;;;;;;5.30;1.20;;;;;;;;;;10530380;28;20216;-70
2021/05/25 04:08:47;;;;;;;4.60;1.30;;;;;;;;;;10524487;28;20215;-71
2021/05/25 04:13:49;;;;;;;2.20;0.80;;;;;;;;;;10529294;28;20219;-70
2021/05/25 04:18:52;;;;;;;3.87;1.10;;;;;;;;;;10531015;28;20219;-70
2021/05/25 04:23:55;;;;;;;2.93;0.97;;;;;;;;;;10530247;28;20223;-70
2021/05/25 04:28:58;;;;;;;4.13;1.17;;;;;;;;;;10518638;28;20242;-70
2021/05/25 04:34:01;;;;;;;3.37;1.17;;;;;;;;;;10522058;28;20235;-70
2021/05/25 04:39:05;;;;;;;1.20;0.93;;;;;;;;;;10521584;28;20255;-70
2021/05/25 04:44:07;;;;;;;3.07;1.03;;;;;;;;;;10527167;28;20691;-74
2021/05/25 04:49:09;;;;;;;2.90;0.90;;;;;;;;;;10526180;28;20261;-71
2021/05/25 04:54:13;;;;;;;2.67;1.00;;;;;;;;;;10528887;28;20229;-71
2021/05/25 04:59:15;;;;;;;0.17;0.17;;;;;;;;;;10538746;28;20242;-74
2021/05/25 05:04:18;;;;;;;1.73;0.80;;;;;;;;;;10534099;28;20216;-71
2021/05/25 05:09:21;;;;;;;4.77;1.00;;;;;;;;;;10531405;28;20277;-71
2021/05/25 05:14:23;;;;;;;2.23;0.77;;;;;;;;;;10534282;28;20208;-71
2021/05/25 05:19:25;;;;;;;3.00;1.07;;;;;;;;;;10527697;28;20193;-68
2021/05/25 05:24:28;;;;;;;3.27;1.20;;;;;;;;;;10532396;28;20340;-71
2021/05/25 05:29:30;;;;;;;3.23;0.90;;;;;;;;;;10531405;28;20289;-69
2021/05/25 05:34:33;;;;;;;4.37;0.80;;;;;;;;;;10532212;28;20291;-70
2021/05/25 05:39:36;;;;;;;1.97;0.63;;;;;;;;;;10533723;28;20188;-70
2021/05/25 05:44:38;;;;;;;2.30;0.67;;;;;;;;;;10535161;28;20220;-70
2021/05/25 05:49:40;;;;;;;4.37;0.80;;;;;;;;;;10518711;28;20301;-70
2021/05/25 05:54:43;;;;;;;2.47;0.70;;;;;;;;;;10520076;28;20224;-70
2021/05/25 05:59:46;;;;;;;4.80;0.90;;;;;;;;;;10538370;28;20257;-71
2021/05/25 06:04:48;;;;;;;1.83;0.40;;;;;;;;;;10513469;28;20337;-70
2021/05/25 06:09:53;;;;;;;3.10;0.93;;;;;;;;;;10527471;28;20218;-71
2021/05/25 06:14:55;;;;;;;4.80;0.63;;;;;;;;;;10524679;28;20224;-70
2021/05/25 06:19:58;;;;;;;2.60;0.60;;;;;;;;;;10529768;28;20200;-71
2021/05/25 06:25:01;;;;;;;4.03;0.93;;;;;;;;;;10524947;28;20560;-71
2021/05/25 06:30:04;;;;;;;4.60;1.10;;;;;;;;;;10525336;28;20207;-70
2021/05/25 06:35:06;;;;;;;3.93;0.80;;;;;;;;;;10526398;28;20679;-71
2021/05/25 06:40:10;;;;;;;3.97;0.80;;;;;;;;;;10521729;28;20247;-70
2021/05/25 06:45:13;;;;;;;4.03;1.13;;;;;;;;;;10534809;28;20227;-72
2021/05/25 06:50:15;;;;;;;1.50;0.70;;;;;;;;;;10524870;28;20200;-70
2021/05/25 06:55:18;;;;;;;2.60;1.13;;;;;;;;;;10529373;28;20223;-69
2021/05/25 07:00:22;;;;;;;1.80;0.60;;;;;;;;;;10531058;28;20237;-70
2021/05/25 07:05:24;;;;;;;5.17;1.20;;;;;;;;;;10522438;28;20284;-71
2021/05/25 07:10:28;;;;;;;2.17;0.63;;;;;;;;;;10517399;28;20215;-71
2021/05/25 07:15:30;;;;;;;2.23;0.67;;;;;;;;;;10522183;28;20212;-72
2021/05/25 07:20:32;;;;;;;1.97;0.60;;;;;;;;;;10519745;28;20215;-72
2021/05/25 07:25:36;;;;;;;4.00;1.00;;;;;;;;;;10520987;28;20235;-73
2021/05/25 07:30:39;;;;;;;2.00;0.60;;;;;;;;;;10522528;28;20261;-70
2021/05/25 07:35:41;;;;;;;2.63;0.70;;;;;;;;;;10524117;28;20204;-71
2021/05/25 07:40:44;;;;;;;5.17;0.87;;;;;;;;;;10512301;28;20193;-72
2021/05/25 07:45:46;;;;;;;3.00;0.60;;;;;;;;;;10525556;28;20196;-72
2021/05/25 07:50:49;;;;;;;2.93;0.77;;;;;;;;;;10523262;28;20279;-71
2021/05/25 07:55:52;;;;;;;4.60;1.10;;;;;;;;;;10530070;28;20261;-72
2021/05/25 08:00:55;;;;;;;1.37;0.57;;;;;;;;;;10526473;28;20269;-72
2021/05/25 08:05:59;;;;;;;5.77;0.70;;;;;;;;;;10526856;28;20640;-72
2021/05/25 08:11:02;;;;;;;1.80;0.60;;;;;;;;;;10512446;28;20227;-72
2021/05/25 08:16:04;;;;;;;1.23;0.60;;;;;;;;;;10530202;28;20275;-72
2021/05/25 08:21:07;;;;;;;5.13;1.10;;;;;;;;;;10516633;28;20222;-72
2021/05/25 08:26:10;;;;;;;1.87;0.50;;;;;;;;;;10528776;28;20246;-73
2021/05/25 08:31:12;;;;;;;3.67;1.00;;;;;;;;;;10535816;28;20283;-74
2021/05/25 08:36:16;;;;;;;2.90;0.93;;;;;;;;;;10537838;28;20183;-73
2021/05/25 08:41:19;;;;;;;3.33;1.10;;;;;;;;;;10534929;28;20215;-73
2021/05/25 08:46:23;;;;;;;3.40;0.80;;;;;;;;;;10537761;28;20249;-72
2021/05/25 08:51:26;;;;;;;3.47;0.97;;;;;;;;;;10546994;27;20304;-72
2021/05/25 08:56:29;;;;;;;2.97;0.90;;;;;;;;;;10547979;28;20240;-72
2021/05/25 09:01:31;;;;;;;0.83;0.43;;;;;;;;;;10537443;28;20208;-72
2021/05/25 09:06:40;;;;;;;2.20;0.90;;;;;;;;;;10535803;28;20203;-71
2021/05/25 09:11:59;;;;;;;3.83;1.00;;;;;;;;;;10536962;28;20238;-74
2021/05/25 09:17:17;;;;;;;1.53;1.03;;;;;;;;;;10536596;28;20179;-74
2021/05/25 09:22:32;;;;;;;3.70;0.98;;;;;;;;;;10542701;28;20686;-73
2021/05/25 09:27:37;;;;;;;3.78;1.00;;;;;;;;;;10537007;28;20207;-71
2021/05/25 09:32:45;;;;;;;7.80;6.25;;;;;;;;;;10540049;28;20268;-72
2021/05/25 09:37:48;;;;;;;3.08;1.20;;;;;;;;;;10519532;28;20653;-73
2021/05/25 09:42:54;;;;;;;3.03;0.93;;;;;;;;;;10530424;28;20286;-73
2021/05/25 09:47:56;;;;;;;3.45;1.25;;;;;;;;;;10530466;28;20301;-74
2021/05/25 09:53:02;;;;;;;2.67;1.10;;;;;;;;;;10530116;28;20244;-73
2021/05/25 09:58:05;;;;;;;1.92;1.00;;;;;;;;;;10536910;28;20192;-73
2021/05/25 10:03:09;;;;;;;3.85;1.13;;;;;;;;;;10528605;28;20735;-73
2021/05/25 10:08:12;;;;;;;4.93;1.50;;;;;;;;;;10528619;28;20247;-73
2021/05/25 10:13:16;;;;;;;4.35;0.95;;;;;;;;;;10519270;28;20230;-73
2021/05/25 10:18:34;;;;;;;1.33;0.90;;;;;;;;;;10530908;28;20591;-72
2021/05/25 10:23:37;;;;;;;3.22;1.05;;;;;;;;;;10532009;28;20226;-73
2021/05/25 10:28:44;;;;;;;2.42;1.10;;;;;;;;;;10536640;28;20220;-72
2021/05/25 10:33:47;;;;;;;2.22;1.15;;;;;;;;;;10529352;28;20277;-72
2021/05/25 10:38:56;;;;;;;3.05;0.98;;;;;;;;;;10532230;28;20196;-73
2021/05/25 10:44:00;;;;;;;4.28;1.40;;;;;;;;;;10525881;28;20219;-72
2021/05/25 10:49:11;;;;;;;2.13;0.90;;;;;;;;;;10541602;28;20220;-73
2021/05/25 10:54:23;;;;;;;2.92;1.05;;;;;;;;;;10526999;28;20216;-73
2021/05/25 10:59:26;;;;;;;2.63;1.35;;;;;;;;;;10536897;27;20192;-72
2021/05/25 11:04:35;;;;;;;2.92;1.00;;;;;;;;;;10526409;28;20216;-72
2021/05/25 11:09:37;;;;;;;2.33;1.13;;;;;;;;;;10524104;28;20307;-73
2021/05/25 11:14:54;;;;;;;3.45;1.20;;;;;;;;;;10523714;28;20352;-73
2021/05/25 11:20:09;;;;;;;2.55;1.15;;;;;;;;;;10521425;28;20264;-73
2021/05/25 11:25:11;;;;;;;2.28;1.10;;;;;;;;;;10522718;28;20206;-75
2021/05/25 11:30:24;;;;;;;2.90;1.05;;;;;;;;;;10526805;28;20251;-72
2021/05/25 11:35:28;;;;;;;3.42;1.00;;;;;;;;;;10522027;28;20211;-72
2021/05/25 11:40:31;;;;;;;3.97;1.23;;;;;;;;;;10525132;28;20207;-72
2021/05/25 11:45:34;;;;;;;3.35;1.17;;;;;;;;;;10526596;28;20590;-72
2021/05/25 11:50:39;;;;;;;1.88;0.80;;;;;;;;;;10525747;28;20204;-72
2021/05/25 11:55:42;;;;;;;2.15;0.80;;;;;;;;;;10528804;28;20184;-72
2021/05/25 12:00:44;;;;;;;4.68;1.40;;;;;;;;;;10526009;28;20196;-74
2021/05/25 12:05:48;;;;;;;1.98;1.05;;;;;;;;;;10527342;28;20670;-73
2021/05/25 12:10:50;;;;;;;3.33;1.15;;;;;;;;;;10525352;28;20364;-73
2021/05/25 12:15:53;;;;;;;2.28;0.88;;;;;;;;;;10516777;28;20258;-73
2021/05/25 12:20:56;;;;;;;2.28;1.17;;;;;;;;;;10532414;28;20231;-72
2021/05/25 12:25:58;;;;;;;4.47;1.30;;;;;;;;;;10528678;28;20203;-73
2021/05/25 12:31:01;;;;;;;3.00;1.00;;;;;;;;;;10522532;28;20223;-74
2021/05/25 12:36:15;;;;;;;3.50;1.20;;;;;;;;;;10540382;28;20245;-72
2021/05/25 12:41:17;;;;;;;3.60;1.20;;;;;;;;;;10525228;28;20271;-72
2021/05/25 12:46:19;;;;;;;1.70;0.90;;;;;;;;;;10521832;28;20230;-72
2021/05/25 12:51:26;;;;;;;0.82;0.60;;;;;;;;;;10519612;28;20259;-73
2021/05/25 12:56:29;;;;;;;3.22;1.20;;;;;;;;;;10530781;28;20192;-72
2021/05/25 13:01:31;;;;;;;2.53;1.00;;;;;;;;;;10520706;28;20551;-72
2021/05/25 13:06:46;;;;;;;2.33;1.00;;;;;;;;;;10523569;28;20196;-71
2021/05/25 13:11:59;;;;;;;2.38;0.85;;;;;;;;;;10518813;28;20268;-73
2021/05/25 13:17:02;;;;;;;3.13;0.87;;;;;;;;;;10534299;28;20186;-73
2021/05/25 13:22:06;;;;;;;2.27;0.90;;;;;;;;;;10543883;28;20207;-72
2021/05/25 13:27:21;;;;;;;3.73;1.03;;;;;;;;;;10529101;28;20208;-73
2021/05/25 13:32:23;;;;;;;3.23;1.10;;;;;;;;;;10534043;28;20208;-73
2021/05/25 13:37:26;;;;;;;2.60;0.73;;;;;;;;;;10536697;28;20213;-72
2021/05/25 13:42:28;;;;;;;2.37;0.80;;;;;;;;;;10531084;28;20442;-71
2021/05/25 13:47:30;;;;;;;3.30;0.97;;;;;;;;;;10536775;28;20261;-73
2021/05/25 13:52:35;;;;;;;5.93;1.67;;;;;;;;;;10533274;28;20221;-72
2021/05/25 13:57:41;;;;;;;2.43;0.90;;;;;;;;;;10542863;28;20668;-72
2021/05/25 14:02:43;;;;;;;3.37;1.00;;;;;;;;;;10529530;28;20222;-72
2021/05/25 14:07:51;;;;;;;1.83;0.80;;;;;;;;;;10522927;28;20274;-72
2021/05/25 14:12:53;;;;;;;3.23;1.23;;;;;;;;;;10522350;28;20235;-72
2021/05/25 14:17:57;;;;;;;1.63;0.73;;;;;;;;;;10528352;28;20203;-71
2021/05/25 14:23:01;;;;;;;0.80;0.60;;;;;;;;;;10534014;28;20703;-72
2021/05/25 14:28:04;;;;;;;1.33;0.87;;;;;;;;;;10527554;28;20204;-72
2021/05/25 14:33:12;;;;;;;1.20;0.50;;;;;;;;;;10530961;28;20759;-71
2021/05/25 14:38:16;;;;;;;1.23;0.60;;;;;;;;;;10522414;28;20192;-72
2021/05/25 14:43:19;;;;;;;2.03;0.60;;;;;;;;;;10523165;28;20211;-70
2021/05/25 14:48:21;;;;;;;4.57;1.40;;;;;;;;;;10522013;28;20207;-70
2021/05/25 14:53:27;;;;;;;1.70;0.80;;;;;;;;;;10541923;28;21087;-71
2021/05/25 14:58:31;;;;;;;3.67;0.93;;;;;;;;;;10528420;28;20192;-72
2021/05/25 15:03:35;;;;;;;2.60;0.90;;;;;;;;;;10531529;28;20230;-73
2021/05/25 15:08:41;;;;;;;0.33;0.33;;;;;;;;;;10536646;28;20289;-73
2021/05/25 15:13:43;;;;;;;2.43;0.70;;;;;;;;;;10525752;28;20223;-73
2021/05/25 15:18:46;;;;;;;1.40;0.50;;;;;;;;;;10522679;28;20184;-73
2021/05/25 15:23:49;;;;;;;2.77;0.77;;;;;;;;;;10526790;28;20220;-73
2021/05/25 15:28:51;;;;;;;1.43;0.83;;;;;;;;;;10526815;28;20502;-73
2021/05/25 15:33:54;;;;;;;1.13;0.50;;;;;;;;;;10521651;28;20223;-72
2021/05/25 15:38:57;;;;;;;3.00;1.00;;;;;;;;;;10538508;28;20272;-72
2021/05/25 15:44:00;;;;;;;2.00;0.70;;;;;;;;;;10521439;28;20219;-72
2021/05/25 15:49:02;;;;;;;5.60;1.37;;;;;;;;;;10527287;28;20216;-72
2021/05/25 15:54:05;;;;;;;1.20;0.50;;;;;;;;;;10535450;28;20242;-72
2021/05/25 15:59:08;;;;;;;1.40;0.67;;;;;;;;;;10526759;28;20275;-73
2021/05/25 16:04:10;;;;;;;2.43;0.83;;;;;;;;;;10530585;28;20341;-74
2021/05/25 16:09:13;;;;;;;2.53;1.00;;;;;;;;;;10520938;28;20229;-72
2021/05/25 16:14:15;;;;;;;1.83;0.77;;;;;;;;;;10524792;28;20237;-72
2021/05/25 16:19:17;;;;;;;2.67;1.00;;;;;;;;;;10523843;28;20181;-73
2021/05/25 16:24:20;;;;;;;2.30;0.73;;;;;;;;;;10522140;28;20212;-74
2021/05/25 16:29:22;;;;;;;2.03;0.93;;;;;;;;;;10522627;28;20694;-72
2021/05/25 16:34:29;;;;;;;4.20;1.17;;;;;;;;;;10532056;28;20211;-72
2021/05/25 16:39:33;;;;;;;3.23;1.40;;;;;;;;;;10525561;28;20601;-72
2021/05/25 16:44:35;;;;;;;2.80;0.47;;;;;;;;;;10526281;28;20215;-73
2021/05/25 16:49:38;;;;;;;2.10;0.50;;;;;;;;;;10529283;28;20642;-73
2021/05/25 16:54:41;;;;;;;4.63;0.90;;;;;;;;;;10529729;28;20226;-71
2021/05/25 16:59:44;;;;;;;1.57;0.70;;;;;;;;;;10528554;28;20187;-69
2021/05/25 17:05:04;;;;;;;1.30;0.60;;;;;;;;;;10525081;28;20220;-73
2021/05/25 17:10:17;;;;;;;2.40;0.60;;;;;;;;;;10523231;28;20260;-71
2021/05/25 17:20:40;;;;;;;1.40;0.80;;;;;;;;;;10532670;28;20204;-72
2021/05/25 17:31:04;;;;;;;1.90;0.80;;;;;;;;;;10546361;28;20219;-71
2021/05/25 17:36:06;;;;;;;1.87;0.67;;;;;;;;;;10525793;28;20237;-69
2021/05/25 17:41:09;;;;;;;2.80;1.10;;;;;;;;;;10527766;28;20212;-70
2021/05/25 17:46:14;;;;;;;2.67;1.00;;;;;;;;;;10528400;28;20194;-71
2021/05/25 17:51:16;;;;;;;1.73;0.70;;;;;;;;;;10527202;28;20224;-71
2021/05/25 17:56:19;;;;;;;2.57;0.97;;;;;;;;;;10531352;28;20210;-72
2021/05/25 18:01:21;;;;;;;2.97;0.90;;;;;;;;;;10523722;28;20209;-70
2021/05/25 18:06:23;;;;;;;3.93;0.90;;;;;;;;;;10519096;28;20199;-71
2021/05/25 18:11:28;;;;;;;2.00;0.67;;;;;;;;;;10524094;28;20207;-69
2021/05/25 18:16:30;;;;;;;3.53;0.90;;;;;;;;;;10529729;28;20634;-72
2021/05/25 18:21:36;;;;;;;3.27;0.90;;;;;;;;;;10530963;28;20219;-71
2021/05/25 18:26:40;;;;;;;2.53;1.00;;;;;;;;;;10530638;28;20219;-72
2021/05/25 18:31:44;;;;;;;3.67;0.93;;;;;;;;;;10528643;28;20302;-71
2021/05/25 18:36:56;;;;;;;1.77;0.80;;;;;;;;;;10514094;28;20224;-72
2021/05/25 18:42:00;;;;;;;2.87;0.73;;;;;;;;;;10526039;28;20220;-71
2021/05/25 18:47:03;;;;;;;2.70;0.87;;;;;;;;;;10526033;28;20207;-72
2021/05/25 18:52:06;;;;;;;2.57;1.20;;;;;;;;;;10523262;28;20746;-73
2021/05/25 18:57:14;;;;;;;3.00;1.10;;;;;;;;;;10528125;28;20192;-72
2021/05/25 19:02:16;;;;;;;3.03;1.07;;;;;;;;;;10524770;28;20212;-72
2021/05/25 19:07:18;;;;;;;4.77;1.00;;;;;;;;;;10521660;28;20188;-73
2021/05/25 19:12:21;;;;;;;2.67;0.93;;;;;;;;;;10522375;28;20219;-74
2021/05/25 19:17:23;;;;;;;2.87;1.10;;;;;;;;;;10529056;28;20184;-73
2021/05/25 19:22:30;;;;;;;4.67;1.40;;;;;;;;;;10522242;28;20416;-72
2021/05/25 19:27:34;;;;;;;3.67;0.80;;;;;;;;;;10526041;28;20191;-72
2021/05/25 19:32:37;;;;;;;2.97;1.30;;;;;;;;;;10516697;28;20255;-72
2021/05/25 19:37:40;;;;;;;3.97;1.00;;;;;;;;;;10524056;28;20744;-71
2021/05/25 19:42:43;;;;;;;1.60;0.60;;;;;;;;;;10522336;28;20679;-72
2021/05/25 19:47:45;;;;;;;2.10;0.80;;;;;;;;;;10524240;28;20729;-69
2021/05/25 19:52:49;;;;;;;3.17;1.00;;;;;;;;;;10529339;28;20260;-70
2021/05/25 19:57:52;;;;;;;4.57;1.10;;;;;;;;;;10526743;28;20184;-74
2021/05/25 20:02:54;;;;;;;3.30;0.93;;;;;;;;;;10526348;28;20686;-72
2021/05/25 20:07:56;;;;;;;4.23;1.03;;;;;;;;;;10524460;28;20504;-73
2021/05/25 20:12:59;;;;;;;3.57;0.90;;;;;;;;;;10524262;28;20226;-74
2021/05/25 20:18:01;;;;;;;2.00;0.90;;;;;;;;;;10516161;28;20615;-72
2021/05/25 20:23:03;;;;;;;3.67;1.00;;;;;;;;;;10512723;28;20215;-72
2021/05/25 20:28:06;;;;;;;1.20;0.60;;;;;;;;;;10522884;28;20214;-71
2021/05/25 20:33:09;;;;;;;2.13;0.90;;;;;;;;;;10520077;28;20227;-70
2021/05/25 20:38:12;;;;;;;4.90;1.20;;;;;;;;;;10522561;28;20187;-72
2021/05/25 20:43:16;;;;;;;2.53;0.90;;;;;;;;;;10518991;28;20701;-71
2021/05/25 20:48:18;;;;;;;2.63;1.00;;;;;;;;;;10523620;28;20195;-69
2021/05/25 20:53:22;;;;;;;3.40;1.00;;;;;;;;;;10515753;28;20216;-70
2021/05/25 20:58:25;;;;;;;3.33;1.10;;;;;;;;;;10524661;28;20196;-71
2021/05/25 21:03:27;;;;;;;4.83;1.17;;;;;;;;;;10520316;28;20220;-71
2021/05/25 21:08:29;;;;;;;2.63;1.07;;;;;;;;;;10523312;28;20216;-72
2021/05/25 21:13:32;;;;;;;2.43;1.03;;;;;;;;;;10524022;28;20220;-71
2021/05/25 21:18:34;;;;;;;2.70;1.00;;;;;;;;;;10522683;28;20225;-71
2021/05/25 21:23:36;;;;;;;2.07;1.00;;;;;;;;;;10530596;28;20216;-72
2021/05/25 21:28:39;;;;;;;2.80;0.83;;;;;;;;;;10528134;28;20215;-71
2021/05/25 21:33:41;;;;;;;3.63;1.07;;;;;;;;;;10520796;28;20261;-71
2021/05/25 21:38:43;;;;;;;3.40;1.03;;;;;;;;;;10529694;28;20250;-71
2021/05/25 21:43:46;;;;;;;3.10;1.17;;;;;;;;;;10532083;28;20222;-70
2021/05/25 21:48:48;;;;;;;4.60;1.00;;;;;;;;;;10535859;28;20208;-71
2021/05/25 21:53:50;;;;;;;3.17;1.00;;;;;;;;;;10532708;28;20234;-70
2021/05/25 21:58:54;;;;;;;1.80;0.70;;;;;;;;;;10530936;28;20256;-70
2021/05/25 22:03:56;;;;;;;2.37;1.13;;;;;;;;;;10521470;28;20375;-70
2021/05/25 22:08:58;;;;;;;0.83;0.63;;;;;;;;;;10520593;28;20207;-71
2021/05/25 22:14:04;;;;;;;2.60;0.77;;;;;;;;;;10521391;28;20243;-68
2021/05/25 22:19:26;;;;;;;2.07;0.90;;;;;;;;;;10526060;28;20196;-70
2021/05/25 22:24:48;;;;;;;2.97;0.90;;;;;;;;;;10523309;28;20219;-70
2021/05/25 22:30:13;;;;;;;2.17;1.00;;;;;;;;;;10525406;28;20223;-70
2021/05/25 22:35:35;;;;;;;2.43;0.60;;;;;;;;;;10523268;28;20564;-69
2021/05/25 22:40:57;;;;;;;3.77;0.90;;;;;;;;;;10525326;28;20203;-70
2021/05/25 22:46:20;;;;;;;1.47;0.80;;;;;;;;;;10525076;28;20223;-69
2021/05/25 22:51:42;;;;;;;1.87;0.90;;;;;;;;;;10529566;28;20223;-70
2021/05/25 22:57:04;;;;;;;2.57;0.80;;;;;;;;;;10521105;28;20229;-70
2021/05/25 23:02:27;;;;;;;1.40;0.80;;;;;;;;;;10520291;28;20212;-70
2021/05/25 23:07:49;;;;;;;0.60;0.60;;;;;;;;;;10520615;28;20306;-69
2021/05/25 23:12:51;;;;;;;2.23;1.10;;;;;;;;;;10511333;28;20269;-71
2021/05/25 23:17:54;;;;;;;2.60;1.00;;;;;;;;;;10530538;28;20195;-72
2021/05/25 23:22:57;;;;;;;2.03;0.83;;;;;;;;;;10503821;28;20291;-70
2021/05/25 23:27:59;;;;;;;1.93;0.80;;;;;;;;;;10518386;28;20400;-71
2021/05/25 23:33:04;;;;;;;2.23;0.87;;;;;;;;;;10517354;28;20242;-69
2021/05/25 23:38:07;;;;;;;1.23;0.70;;;;;;;;;;10520215;28;20627;-69
2021/05/25 23:43:10;;;;;;;2.50;0.70;;;;;;;;;;10523770;28;20211;-71
2021/05/25 23:48:13;;;;;;;1.47;0.70;;;;;;;;;;10519876;28;20211;-70
2021/05/25 23:53:15;;;;;;;2.77;0.80;;;;;;;;;;10515984;28;20236;-70
2021/05/25 23:58:24;;;;;;;2.30;0.73;;;;;;;;;;10527724;28;20199;-72
